createdAt,value
2023-03-06T00:00:49.446Z,2.51
2023-03-06T00:03:20.387Z,2.47
2023-03-06T00:05:52.399Z,2.48
2023-03-06T00:08:25.661Z,2.41
2023-03-06T00:10:54.776Z,2.47
2023-03-06T00:13:24.939Z,2.48
2023-03-06T00:16:00.943Z,2.51
2023-03-06T00:18:31.253Z,2.43
2023-03-06T00:21:02.838Z,2.43
2023-03-06T00:23:33.842Z,2.51
2023-03-06T00:26:02.383Z,2.43
2023-03-06T00:28:32.825Z,2.41
2023-03-06T00:31:04.395Z,2.39
2023-03-06T00:33:35.555Z,2.43
2023-03-06T00:36:10.917Z,2.34
2023-03-06T00:38:39.767Z,2.33
2023-03-06T00:41:09.289Z,2.37
2023-03-06T00:43:39.210Z,2.36
2023-03-06T00:46:08.008Z,2.40
2023-03-06T00:48:37.639Z,2.37
2023-03-06T00:51:13.884Z,2.37
2023-03-06T00:53:42.894Z,2.36
2023-03-06T00:56:14.188Z,2.39
2023-03-06T00:58:43.952Z,2.39
2023-03-06T01:01:13.164Z,2.40
2023-03-06T01:03:42.886Z,2.40
2023-03-06T01:06:16.029Z,2.44
2023-03-06T01:08:46.606Z,2.36
2023-03-06T01:11:15.440Z,2.44
2023-03-06T01:13:45.008Z,2.44
2023-03-06T01:16:21.275Z,2.47
2023-03-06T01:18:50.774Z,2.47
2023-03-06T01:21:21.913Z,2.48
2023-03-06T01:23:50.096Z,2.50
2023-03-06T01:26:18.631Z,2.46
2023-03-06T01:28:47.416Z,2.47
2023-03-06T01:31:18.384Z,2.53
2023-03-06T01:33:46.766Z,2.51
2023-03-06T01:36:15.078Z,2.47
2023-03-06T01:38:47.058Z,2.44
2023-03-06T01:41:21.788Z,2.40
2023-03-06T01:43:50.601Z,2.47
2023-03-06T01:46:33.991Z,2.47
2023-03-06T01:49:05.721Z,2.47
2023-03-06T01:51:43.152Z,2.44
2023-03-06T01:54:16.523Z,2.40
2023-03-06T01:56:49.369Z,2.46
2023-03-06T01:59:18.567Z,2.46
2023-03-06T02:01:50.940Z,2.44
2023-03-06T02:04:24.054Z,2.46
2023-03-06T02:06:53.506Z,2.43
2023-03-06T02:09:29.848Z,2.41
2023-03-06T02:12:00.662Z,2.44
2023-03-06T02:14:30.092Z,2.58
2023-03-06T02:17:00.027Z,2.56
2023-03-06T02:19:39.088Z,2.53
2023-03-06T02:22:09.014Z,2.51
2023-03-06T02:24:49.231Z,2.50
2023-03-06T02:27:23.986Z,2.50
2023-03-06T02:29:53.928Z,2.54
2023-03-06T02:32:24.197Z,2.50
2023-03-06T02:34:59.590Z,2.58
2023-03-06T02:37:30.713Z,2.57
2023-03-06T02:40:12.459Z,2.56
2023-03-06T02:42:47.693Z,2.47
2023-03-06T02:45:21.569Z,2.57
2023-03-06T02:47:52.015Z,2.57
2023-03-06T02:50:23.938Z,2.58
2023-03-06T02:52:54.167Z,2.56
2023-03-06T02:55:22.998Z,2.67
2023-03-06T02:57:55.930Z,2.58
2023-03-06T03:00:27.300Z,2.60
2023-03-06T03:02:55.802Z,2.68
2023-03-06T03:05:29.488Z,2.68
2023-03-06T03:07:58.185Z,2.64
2023-03-06T03:10:28.285Z,2.54
2023-03-06T03:12:59.421Z,2.56
2023-03-06T03:15:30.900Z,2.47
2023-03-06T03:18:00.584Z,2.54
2023-03-06T03:20:29.079Z,2.53
2023-03-06T03:22:58.398Z,2.54
2023-03-06T03:25:27.598Z,2.56
2023-03-06T03:28:00.431Z,2.62
2023-03-06T03:30:29.328Z,2.60
2023-03-06T03:32:58.297Z,2.53
2023-03-06T03:35:28.008Z,2.50
2023-03-06T03:37:56.415Z,2.48
2023-03-06T03:40:26.827Z,2.50
2023-03-06T03:42:57.106Z,2.48
2023-03-06T03:45:27.717Z,2.51
2023-03-06T03:47:56.736Z,2.41
2023-03-06T03:50:28.391Z,2.44
2023-03-06T03:52:57.838Z,2.41
2023-03-06T03:55:27.914Z,2.40
2023-03-06T03:58:00.268Z,2.40
2023-03-06T04:00:31.574Z,2.40
2023-03-06T04:03:00.257Z,2.39
2023-03-06T04:05:31.321Z,2.40
2023-03-06T04:08:01.254Z,2.39
2023-03-06T04:10:32.235Z,2.40
2023-03-06T04:13:03.582Z,2.48
2023-03-06T04:15:37.796Z,2.48
2023-03-06T04:18:06.766Z,2.50
2023-03-06T04:20:38.190Z,2.57
2023-03-06T04:23:08.413Z,2.54
2023-03-06T04:25:36.632Z,2.54
2023-03-06T04:28:06.207Z,2.54
2023-03-06T04:30:38.774Z,2.56
2023-03-06T04:33:08.627Z,2.62
2023-03-06T04:35:39.266Z,2.60
2023-03-06T04:38:10.358Z,2.67
2023-03-06T04:40:40.685Z,2.67
2023-03-06T04:43:15.030Z,2.62
2023-03-06T04:45:47.849Z,2.56
2023-03-06T04:48:19.759Z,2.58
2023-03-06T04:50:48.397Z,2.58
2023-03-06T04:53:23.690Z,2.62
2023-03-06T04:55:52.894Z,2.61
2023-03-06T04:58:26.886Z,2.62
2023-03-06T05:00:58.240Z,2.67
2023-03-06T05:03:27.838Z,2.64
2023-03-06T05:05:56.557Z,2.61
2023-03-06T05:08:26.763Z,2.60
2023-03-06T05:11:03.151Z,2.58
2023-03-06T05:13:31.399Z,2.53
2023-03-06T05:16:04.764Z,2.34
2023-03-06T05:18:35.265Z,2.18
2023-03-06T05:21:10.722Z,2.25
2023-03-06T05:23:42.265Z,2.30
2023-03-06T05:26:15.039Z,2.33
2023-03-06T05:28:43.286Z,2.29
2023-03-06T05:31:13.997Z,2.30
2023-03-06T05:33:42.770Z,2.29
2023-03-06T05:36:11.714Z,2.27
2023-03-06T05:38:41.346Z,2.16
2023-03-06T05:41:13.017Z,2.15
2023-03-06T05:43:42.600Z,2.15
2023-03-06T05:46:12.846Z,2.22
2023-03-06T05:48:46.778Z,2.10
2023-03-06T05:51:17.454Z,2.10
2023-03-06T05:53:46.121Z,2.03
2023-03-06T05:56:15.177Z,1.97
2023-03-06T05:58:46.557Z,1.99
2023-03-06T06:01:18.990Z,2.03
2023-03-06T06:03:54.039Z,2.02
2023-03-06T06:06:24.171Z,2.02
2023-03-06T06:08:53.016Z,1.99
2023-03-06T06:11:21.887Z,1.95
2023-03-06T06:13:53.281Z,1.94
2023-03-06T06:16:22.798Z,1.92
2023-03-06T06:19:02.946Z,1.98
2023-03-06T06:21:36.368Z,1.99
2023-03-06T06:24:07.329Z,2.05
2023-03-06T06:26:36.134Z,2.03
2023-03-06T06:29:05.679Z,2.06
2023-03-06T06:31:39.443Z,2.09
2023-03-06T06:34:12.551Z,2.05
2023-03-06T06:36:41.982Z,2.06
2023-03-06T06:39:16.751Z,2.08
2023-03-06T06:42:02.394Z,2.09
2023-03-06T06:44:38.189Z,2.10
2023-03-06T06:47:28.920Z,2.13
2023-03-06T06:49:58.816Z,2.15
2023-03-06T06:52:31.197Z,2.12
2023-03-06T06:54:59.692Z,2.25
2023-03-06T06:57:28.067Z,2.33
2023-03-06T06:59:59.768Z,2.47
2023-03-06T07:02:29.693Z,2.39
2023-03-06T07:05:04.191Z,2.39
2023-03-06T07:07:37.197Z,2.39
2023-03-06T07:10:07.756Z,2.34
2023-03-06T07:12:37.895Z,2.41
2023-03-06T07:15:08.243Z,2.40
2023-03-06T07:17:39.621Z,2.44
2023-03-06T07:20:12.011Z,2.48
2023-03-06T07:22:50.943Z,2.58
2023-03-06T07:25:22.467Z,2.62
2023-03-06T07:27:54.497Z,2.53
2023-03-06T07:30:24.352Z,2.50
2023-03-06T07:33:00.323Z,2.57
2023-03-06T07:35:28.886Z,2.57
2023-03-06T07:37:57.605Z,2.67
2023-03-06T07:40:27.196Z,2.81
2023-03-06T07:43:06.016Z,2.74
2023-03-06T07:45:41.816Z,2.77
2023-03-06T07:48:11.316Z,2.91
2023-03-06T07:50:39.825Z,2.89
2023-03-06T07:53:10.118Z,2.88
2023-03-06T07:55:42.040Z,2.94
2023-03-06T07:58:10.822Z,3.02
2023-03-06T08:00:39.406Z,3.11
2023-03-06T08:03:08.050Z,2.74
2023-03-06T08:05:39.117Z,2.87
2023-03-06T08:08:07.634Z,2.88
2023-03-06T08:10:36.156Z,2.87
2023-03-06T08:13:05.600Z,3.01
2023-03-06T08:15:34.019Z,3.06
2023-03-06T08:18:02.348Z,3.06
2023-03-06T08:20:30.927Z,3.09
2023-03-06T08:23:00.650Z,3.16
2023-03-06T08:25:31.207Z,3.25
2023-03-06T08:28:00.859Z,3.35
2023-03-06T08:30:29.258Z,3.32
2023-03-06T08:32:57.488Z,3.37
2023-03-06T08:35:25.963Z,3.57
2023-03-06T08:37:56.326Z,3.27
2023-03-06T08:40:30.468Z,3.27
2023-03-06T08:43:00.222Z,3.04
2023-03-06T08:45:28.680Z,3.37
2023-03-06T08:47:57.461Z,3.60
2023-03-06T08:50:26.152Z,3.59
2023-03-06T08:52:56.109Z,3.46
2023-03-06T08:55:28.204Z,3.37
2023-03-06T08:57:57.436Z,3.36
2023-03-06T09:00:30.353Z,3.46
2023-03-06T09:03:01.699Z,3.56
2023-03-06T09:05:30.763Z,3.84
2023-03-06T09:07:59.170Z,4.12
2023-03-06T09:10:29.618Z,3.84
2023-03-06T09:12:59.302Z,3.95
2023-03-06T09:15:29.625Z,4.11
2023-03-06T09:17:59.987Z,4.19
2023-03-06T09:20:28.736Z,4.67
2023-03-06T09:22:57.156Z,4.92
2023-03-06T09:25:31.931Z,4.67
2023-03-06T09:28:10.943Z,4.73
2023-03-06T09:30:42.202Z,5.10
2023-03-06T09:33:10.533Z,4.77
2023-03-06T09:35:45.715Z,4.39
2023-03-06T09:38:14.625Z,4.76
2023-03-06T09:41:58.969Z,4.74
2023-03-06T09:44:32.382Z,5.62
2023-03-06T09:47:29.768Z,5.86
2023-03-06T09:50:11.811Z,5.65
2023-03-06T09:52:47.964Z,5.29
2023-03-06T09:55:20.530Z,5.07
2023-03-06T09:57:56.086Z,4.67
2023-03-06T10:00:32.138Z,5.07
2023-03-06T10:03:14.836Z,5.45
2023-03-06T10:05:46.471Z,5.67
2023-03-06T10:08:27.864Z,5.91
2023-03-06T10:11:03.923Z,5.22
2023-03-06T10:13:42.712Z,5.31
2023-03-06T10:16:23.963Z,5.87
2023-03-06T10:18:54.514Z,6.01
2023-03-06T10:21:39.085Z,6.27
2023-03-06T10:24:21.195Z,5.40
2023-03-06T10:26:56.540Z,5.93
2023-03-06T10:29:56.367Z,5.67
2023-03-06T10:32:47.443Z,6.10
2023-03-06T10:35:20.660Z,6.14
2023-03-06T10:37:49.682Z,5.94
2023-03-06T10:40:21.006Z,6.03
2023-03-06T10:42:58.700Z,5.76
2023-03-06T10:45:48.396Z,5.46
2023-03-06T10:48:24.710Z,5.14
2023-03-06T10:50:54.948Z,5.59
2023-03-06T10:53:29.233Z,5.83
2023-03-06T10:56:00.491Z,5.76
2023-03-06T10:58:31.982Z,5.91
2023-03-06T11:01:09.250Z,5.59
2023-03-06T11:03:39.869Z,5.85
2023-03-06T11:06:12.996Z,6.25
2023-03-06T11:08:43.692Z,6.44
2023-03-06T11:11:18.504Z,6.66
2023-03-06T11:14:00.102Z,6.49
2023-03-06T11:16:31.516Z,6.24
2023-03-06T11:19:04.333Z,6.48
2023-03-06T11:21:36.036Z,6.65
2023-03-06T11:24:07.160Z,6.64
2023-03-06T11:26:42.508Z,6.62
2023-03-06T11:29:25.862Z,6.93
2023-03-06T11:31:58.355Z,6.89
2023-03-06T11:34:39.836Z,6.80
2023-03-06T11:37:12.144Z,6.83
2023-03-06T11:39:53.879Z,7.06
2023-03-06T11:42:29.846Z,6.99
2023-03-06T11:45:10.392Z,7.01
2023-03-06T11:47:42.307Z,7.23
2023-03-06T11:50:21.672Z,7.34
2023-03-06T11:52:54.232Z,7.50
2023-03-06T11:55:36.335Z,7.30
2023-03-06T11:58:13.251Z,7.28
2023-03-06T12:00:53.564Z,7.55
2023-03-06T12:04:00.542Z,7.36
2023-03-06T12:06:39.602Z,7.24
2023-03-06T12:09:22.469Z,7.13
2023-03-06T12:12:00.384Z,7.17
2023-03-06T12:14:43.661Z,7.24
2023-03-06T12:17:23.745Z,7.08
2023-03-06T12:20:11.576Z,7.14
2023-03-06T12:22:58.223Z,7.15
2023-03-06T12:25:37.758Z,7.06
2023-03-06T12:28:29.086Z,6.97
2023-03-06T12:31:11.191Z,7.03
2023-03-06T12:33:52.407Z,7.01
2023-03-06T12:36:41.275Z,7.13
2023-03-06T12:39:22.114Z,7.03
2023-03-06T12:42:06.744Z,7.17
2023-03-06T12:45:09.677Z,7.18
2023-03-06T12:47:43.675Z,7.08
2023-03-06T12:50:23.484Z,7.08
2023-03-06T12:52:53.754Z,7.01
2023-03-06T12:55:26.052Z,6.97
2023-03-06T12:57:55.684Z,6.76
2023-03-06T13:01:04.222Z,6.57
2023-03-06T13:03:55.484Z,6.24
2023-03-06T13:06:49.732Z,6.41
2023-03-06T13:09:32.706Z,6.66
2023-03-06T13:12:20.650Z,6.64
2023-03-06T13:14:57.791Z,6.28
2023-03-06T13:17:34.011Z,6.13
2023-03-06T13:20:26.642Z,6.44
2023-03-06T13:22:55.805Z,6.46
2023-03-06T13:25:48.909Z,6.71
2023-03-06T13:28:41.615Z,6.62
2023-03-06T13:31:24.941Z,6.71
2023-03-06T13:34:02.177Z,6.72
2023-03-06T13:36:34.055Z,7.01
2023-03-06T13:39:06.672Z,6.99
2023-03-06T13:41:57.569Z,7.06
2023-03-06T13:44:47.722Z,7.11
2023-03-06T13:47:35.662Z,7.18
2023-03-06T13:50:32.065Z,6.99
2023-03-06T13:53:37.424Z,6.73
2023-03-06T13:56:27.707Z,6.99
2023-03-06T13:59:20.758Z,7.07
2023-03-06T14:02:03.297Z,6.94
2023-03-06T14:04:44.052Z,7.06
2023-03-06T14:07:23.803Z,7.14
2023-03-06T14:10:03.347Z,7.14
2023-03-06T14:12:35.418Z,7.14
2023-03-06T14:15:14.629Z,7.08
2023-03-06T14:17:53.828Z,7.17
2023-03-06T14:20:34.599Z,6.77
2023-03-06T14:23:21.254Z,6.55
2023-03-06T14:25:56.146Z,6.46
2023-03-06T14:28:27.326Z,6.52
2023-03-06T14:30:58.593Z,6.55
2023-03-06T14:33:38.189Z,6.72
2023-03-06T14:36:09.380Z,6.76
2023-03-06T14:38:44.822Z,6.62
2023-03-06T14:41:15.450Z,6.73
2023-03-06T14:43:46.111Z,6.49
2023-03-06T14:46:21.604Z,6.50
2023-03-06T14:49:02.333Z,6.59
2023-03-06T14:51:41.841Z,6.57
2023-03-06T14:54:18.858Z,6.45
2023-03-06T14:56:49.584Z,6.46
2023-03-06T14:59:24.062Z,6.27
2023-03-06T15:01:58.130Z,6.39
2023-03-06T15:04:35.360Z,6.48
2023-03-06T15:07:07.108Z,6.28
2023-03-06T15:09:36.584Z,6.38
2023-03-06T15:12:08.028Z,6.20
2023-03-06T15:14:38.875Z,6.14
2023-03-06T15:17:22.453Z,6.10
2023-03-06T15:19:54.865Z,5.97
2023-03-06T15:22:32.053Z,5.91
2023-03-06T15:25:26.777Z,5.91
2023-03-06T15:28:00.250Z,5.83
2023-03-06T15:30:40.867Z,5.79
2023-03-06T15:33:26.018Z,5.86
2023-03-06T15:35:57.454Z,5.86
2023-03-06T15:38:33.745Z,5.80
2023-03-06T15:41:04.186Z,5.74
2023-03-06T15:43:38.107Z,5.70
2023-03-06T15:46:09.251Z,5.60
2023-03-06T15:48:38.045Z,5.53
2023-03-06T15:51:08.623Z,5.52
2023-03-06T15:53:42.792Z,5.49
2023-03-06T15:56:13.803Z,5.45
2023-03-06T15:58:43.818Z,5.45
2023-03-06T16:01:17.087Z,5.39
2023-03-06T16:03:46.224Z,5.38
2023-03-06T16:06:20.280Z,5.31
2023-03-06T16:08:51.552Z,5.28
2023-03-06T16:11:41.859Z,5.31
2023-03-06T16:14:24.146Z,5.29
2023-03-06T16:16:55.129Z,5.24
2023-03-06T16:19:27.571Z,5.24
2023-03-06T16:21:59.182Z,5.18
2023-03-06T16:24:30.557Z,5.10
2023-03-06T16:27:02.558Z,5.10
2023-03-06T16:29:33.776Z,5.08
2023-03-06T16:32:03.212Z,5.07
2023-03-06T16:34:32.444Z,5.04
2023-03-06T16:37:05.723Z,4.95
2023-03-06T16:39:42.591Z,4.80
2023-03-06T16:42:13.042Z,4.76
2023-03-06T16:44:41.356Z,4.71
2023-03-06T16:47:21.149Z,4.66
2023-03-06T16:49:52.079Z,4.66
2023-03-06T16:52:20.382Z,4.54
2023-03-06T16:54:51.584Z,4.54
2023-03-06T16:57:24.029Z,4.49
2023-03-06T16:59:53.303Z,4.48
2023-03-06T17:02:22.735Z,4.43
2023-03-06T17:04:51.849Z,4.56
2023-03-06T17:07:21.981Z,4.52
2023-03-06T17:09:52.533Z,4.62
2023-03-06T17:12:23.862Z,4.50
2023-03-06T17:14:54.410Z,4.46
2023-03-06T17:17:22.878Z,4.45
2023-03-06T17:19:51.958Z,4.35
2023-03-06T17:22:23.052Z,4.26
2023-03-06T17:24:53.426Z,4.29
2023-03-06T17:27:24.982Z,4.26
2023-03-06T17:29:54.236Z,4.26
2023-03-06T17:32:28.404Z,4.16
2023-03-06T17:34:58.908Z,4.16
2023-03-06T17:37:28.260Z,4.18
2023-03-06T17:40:01.190Z,4.11
2023-03-06T17:42:29.891Z,4.05
2023-03-06T17:45:00.187Z,4.06
2023-03-06T17:47:28.705Z,4.02
2023-03-06T17:49:58.536Z,4.01
2023-03-06T17:52:27.618Z,4.08
2023-03-06T17:54:58.906Z,3.99
2023-03-06T17:57:29.457Z,3.91
2023-03-06T17:59:58.415Z,3.88
2023-03-06T18:02:27.206Z,3.83
2023-03-06T18:04:58.169Z,3.83
2023-03-06T18:07:27.436Z,3.77
2023-03-06T18:09:59.650Z,3.69
2023-03-06T18:12:28.828Z,3.69
2023-03-06T18:14:57.711Z,3.56
2023-03-06T18:17:29.070Z,3.59
2023-03-06T18:19:59.230Z,3.73
2023-03-06T18:22:29.152Z,3.69
2023-03-06T18:24:59.568Z,3.69
2023-03-06T18:27:30.855Z,3.71
2023-03-06T18:29:59.259Z,3.67
2023-03-06T18:32:29.750Z,3.63
2023-03-06T18:35:00.119Z,3.64
2023-03-06T18:37:29.391Z,3.63
2023-03-06T18:39:59.256Z,3.57
2023-03-06T18:42:29.469Z,3.59
2023-03-06T18:44:57.672Z,3.63
2023-03-06T18:47:26.761Z,3.59
2023-03-06T18:49:58.460Z,3.56
2023-03-06T18:52:28.652Z,3.54
2023-03-06T18:55:00.110Z,3.49
2023-03-06T18:57:30.326Z,3.52
2023-03-06T18:59:59.207Z,3.52
2023-03-06T19:02:35.035Z,3.43
2023-03-06T19:05:04.690Z,3.44
2023-03-06T19:07:34.190Z,3.53
2023-03-06T19:10:06.128Z,3.39
2023-03-06T19:12:35.591Z,3.40
2023-03-06T19:15:05.709Z,3.27
2023-03-06T19:17:35.934Z,3.32
2023-03-06T19:20:06.173Z,3.27
2023-03-06T19:22:36.035Z,3.19
2023-03-06T19:25:07.109Z,3.13
2023-03-06T19:27:37.985Z,3.22
2023-03-06T19:30:08.391Z,3.19
2023-03-06T19:32:37.614Z,3.15
2023-03-06T19:35:12.429Z,3.18
2023-03-06T19:37:41.874Z,3.13
2023-03-06T19:40:14.012Z,3.11
2023-03-06T19:42:43.824Z,3.05
2023-03-06T19:45:13.048Z,2.97
2023-03-06T19:47:41.625Z,2.97
2023-03-06T19:50:11.854Z,2.98
2023-03-06T19:52:40.148Z,3.02
2023-03-06T19:55:10.214Z,3.04
2023-03-06T19:57:40.857Z,2.94
2023-03-06T20:00:11.515Z,2.84
2023-03-06T20:02:41.039Z,2.81
2023-03-06T20:05:10.289Z,2.81
2023-03-06T20:07:38.479Z,2.76
2023-03-06T20:10:07.451Z,2.65
2023-03-06T20:12:36.716Z,2.64
2023-03-06T20:15:08.323Z,2.61
2023-03-06T20:17:40.818Z,2.61
2023-03-06T20:20:12.112Z,2.60
2023-03-06T20:22:40.789Z,2.47
2023-03-06T20:25:10.319Z,2.33
2023-03-06T20:27:39.200Z,2.40
2023-03-06T20:30:11.516Z,2.41
2023-03-06T20:32:40.051Z,2.40
2023-03-06T20:35:09.330Z,2.39
2023-03-06T20:37:38.156Z,2.51
2023-03-06T20:40:09.494Z,2.54
2023-03-06T20:42:38.439Z,2.51
2023-03-06T20:45:09.782Z,2.48
2023-03-06T20:47:37.910Z,2.48
2023-03-06T20:50:09.230Z,2.41
2023-03-06T20:52:38.093Z,2.41
2023-03-06T20:55:07.815Z,2.36
2023-03-06T20:57:38.967Z,2.27
2023-03-06T21:00:11.886Z,2.22
2023-03-06T21:02:40.622Z,2.18
2023-03-06T21:05:12.730Z,2.25
2023-03-06T21:07:42.954Z,2.36
2023-03-06T21:10:14.634Z,2.41
2023-03-06T21:12:43.953Z,2.46
2023-03-06T21:15:14.974Z,2.48
2023-03-06T21:17:45.167Z,2.50
2023-03-06T21:20:27.828Z,2.41
2023-03-06T21:22:59.018Z,2.46
2023-03-06T21:25:30.802Z,2.44
2023-03-06T21:28:00.406Z,2.40
2023-03-06T21:30:35.385Z,2.36
2023-03-06T21:33:10.627Z,2.44
2023-03-06T21:35:47.428Z,2.44
2023-03-06T21:38:18.175Z,2.51
2023-03-06T21:40:47.804Z,2.48
2023-03-06T21:43:17.643Z,2.54
2023-03-06T21:45:49.345Z,2.41
2023-03-06T21:48:19.062Z,2.40
2023-03-06T21:50:48.923Z,2.41
2023-03-06T21:53:21.348Z,2.33
2023-03-06T21:55:51.844Z,2.25
2023-03-06T21:58:24.989Z,2.26
2023-03-06T22:00:55.616Z,2.33
2023-03-06T22:03:26.365Z,2.25
2023-03-06T22:05:57.282Z,2.22
2023-03-06T22:08:28.384Z,2.18
2023-03-06T22:10:59.942Z,2.16
2023-03-06T22:13:29.858Z,2.16
2023-03-06T22:16:02.474Z,2.20
2023-03-06T22:18:32.026Z,2.16
2023-03-06T22:21:02.197Z,2.22
2023-03-06T22:23:32.582Z,2.26
2023-03-06T22:26:03.789Z,2.20
2023-03-06T22:28:34.774Z,2.22
2023-03-06T22:31:12.004Z,2.22
2023-03-06T22:33:43.281Z,2.19
2023-03-06T22:36:16.016Z,2.16
2023-03-06T22:38:46.628Z,2.20
2023-03-06T22:41:18.128Z,2.15
2023-03-06T22:43:47.633Z,2.19
2023-03-06T22:46:18.901Z,2.20
2023-03-06T22:48:49.998Z,2.12
2023-03-06T22:51:24.115Z,2.05
2023-03-06T22:53:56.588Z,2.13
2023-03-06T22:56:31.445Z,2.23
2023-03-06T22:59:01.697Z,2.13
2023-03-06T23:01:34.973Z,2.15
2023-03-06T23:04:08.549Z,2.13
2023-03-06T23:06:41.954Z,2.06
2023-03-06T23:09:21.516Z,2.08
2023-03-06T23:11:54.971Z,2.13
2023-03-06T23:14:25.201Z,2.18
2023-03-06T23:16:56.945Z,2.23
2023-03-06T23:19:31.314Z,2.13
2023-03-06T23:22:01.840Z,2.10
2023-03-06T23:24:35.931Z,2.10
2023-03-06T23:27:04.939Z,1.97
2023-03-06T23:29:37.353Z,1.95
2023-03-06T23:32:10.430Z,1.85
2023-03-06T23:34:40.352Z,1.75
2023-03-06T23:37:12.675Z,1.74
2023-03-06T23:39:42.911Z,1.71
2023-03-06T23:42:12.941Z,1.67
2023-03-06T23:44:43.473Z,1.68
2023-03-06T23:47:13.154Z,1.65
2023-03-06T23:49:44.805Z,1.58
2023-03-06T23:52:13.683Z,1.52
2023-03-06T23:54:42.036Z,1.47
2023-03-06T23:57:12.033Z,1.40
2023-03-06T23:59:41.308Z,1.37
